Huvudsida
METAR-TAF:

METAR-TAF

Flygplatser :

Sogndals flygplats. Haukåsen

Sogndals, Norge

latitud: 61-09N, longitud: 007-08E, höjd: 49 m

Aktuellt väderrapport

Denna rapport gjordes för 51 minuter sedan, klockan 17:20 UTC
Vind 3 kt varierande vindriktning
Temperatur 20°C
Fuktighet 24%
Tryck 1016 hPa
Sikt 10 km eller mer
Inga moln under 1 500 m eller inga cumulonimbus

METAR: ENSG 221720Z VRB03KT CAVOK 20/M01 Q1016 RMK WIND 3806FT 12021KT

Tid: 20:11 (18:11 UTC)

Väderprognos

Denna rapport gjordes för 2 timmar och 11 minuter sedan, klockan 16:00 UTC
Prognos gäller från 22 kl. 16 UTC till 22 kl. 21 UTC
Vind 9 kt från ost
Sikt 10 km eller mer
Inga moln under 1 500 m eller inga cumulonimbus

TAF: ENSG 221600Z 2216/2221 10009KT CAVOK

Aktuella väderrapporter och prognoser från 4000 flygplatser (METAR- och TAF-rapporter).

De tillgängliga stationerna syns som gula och röda prickar på kartan.

För musen över prickarna för att se namnen på stationerna.

Klicka sedan för att få väderrapporter och prognoser.

För att ändra kartan: Klicka på de gröna knapparna med ett svart kors på för att zooma in; den gröna knappen med ett streck på för att zooma ut; eller på de gröna pilarna för angränsande kartor.


METAR-TAF: